Time,TemperatureF,DewpointF,PressureIn,WindDirection,WindDirectionDegrees,WindSpeedMPH,WindSpeedGustMPH,Humidity,HourlyPrecipIn,Conditions,Clouds,dailyrainin,SoftwareType,DateUTC
2013-05-02 00:01:00,55.0,53.0,30.06,WSW,247,0.0,1.0,93,0.00,,,0.00,,2013-05-02 07:01:00,
2013-05-02 00:21:00,54.0,52.0,30.07,WSW,247,0.0,0.0,93,0.00,,,0.00,,2013-05-02 07:21:00,
2013-05-02 00:31:00,54.0,52.0,30.07,WSW,246,0.0,0.0,93,0.00,,,0.00,,2013-05-02 07:31:00,
2013-05-02 00:52:00,54.0,51.0,30.07,WSW,248,0.0,2.0,91,0.00,,,0.00,,2013-05-02 07:52:00,
2013-05-02 01:02:00,54.0,51.0,30.07,WSW,248,0.0,0.0,91,0.00,,,0.00,,2013-05-02 08:02:00,
2013-05-02 01:21:00,53.0,51.0,30.06,WSW,248,0.0,0.0,93,0.00,,,0.00,,2013-05-02 08:21:00,
2013-05-02 01:32:00,52.0,50.0,30.07,WSW,248,0.0,0.0,93,0.00,,,0.00,,2013-05-02 08:32:00,
2013-05-02 01:42:00,52.0,50.0,30.07,WSW,248,0.0,0.0,93,0.00,,,0.00,,2013-05-02 08:42:00,
2013-05-02 01:52:00,52.0,51.0,30.06,WSW,248,0.0,0.0,95,0.00,,,0.00,,2013-05-02 08:52:00,
2013-05-02 02:01:00,52.0,51.0,30.06,WSW,248,0.0,0.0,95,0.00,,,0.00,,2013-05-02 09:01:00,
2013-05-02 02:21:00,51.0,50.0,30.06,WSW,248,0.0,0.0,95,0.00,,,0.00,,2013-05-02 09:21:00,
2013-05-02 02:32:00,51.0,50.0,30.06,WSW,248,0.0,0.0,95,0.00,,,0.00,,2013-05-02 09:32:00,
2013-05-02 02:52:00,51.0,50.0,30.07,WSW,248,0.0,0.0,96,0.00,,,0.00,,2013-05-02 09:52:00,
2013-05-02 03:02:00,51.0,50.0,30.07,WSW,248,0.0,0.0,96,0.00,,,0.00,,2013-05-02 10:02:00,
2013-05-02 03:22:00,50.0,49.0,30.07,WSW,248,0.0,0.0,96,0.00,,,0.00,,2013-05-02 10:22:00,
2013-05-02 03:32:00,51.0,50.0,30.07,WSW,248,0.0,0.0,97,0.00,,,0.00,,2013-05-02 10:32:00,
2013-05-02 03:52:00,51.0,50.0,30.07,WSW,251,0.0,3.0,96,0.00,,,0.00,,2013-05-02 10:52:00,
2013-05-02 04:02:00,50.0,49.0,30.07,NW,307,2.0,4.0,96,0.00,,,0.00,,2013-05-02 11:02:00,
2013-05-02 04:11:00,50.0,49.0,30.07,NW,307,2.0,4.0,96,0.00,,,0.00,,2013-05-02 11:11:00,
2013-05-02 04:21:00,51.0,50.0,30.06,NE,36,2.0,6.0,95,0.00,,,0.00,,2013-05-02 11:21:00,
2013-05-02 04:31:00,51.0,50.0,30.06,NE,37,3.0,5.0,95,0.00,,,0.00,,2013-05-02 11:31:00,
2013-05-02 04:41:00,51.0,50.0,30.06,NE,37,3.0,5.0,95,0.00,,,0.00,,2013-05-02 11:41:00,
2013-05-02 04:52:00,52.0,51.0,30.06,NE,37,0.0,4.0,96,0.01,,,0.01,,2013-05-02 11:52:00,
2013-05-02 05:01:00,51.0,50.0,30.06,NE,37,0.0,2.0,95,0.01,,,0.01,,2013-05-02 12:01:00,
2013-05-02 05:21:00,50.0,49.0,30.06,NE,37,0.0,0.0,96,0.01,,,0.01,,2013-05-02 12:21:00,
2013-05-02 05:32:00,50.0,49.0,30.06,NE,37,0.0,0.0,96,0.01,,,0.01,,2013-05-02 12:32:00,
2013-05-02 05:52:00,49.0,48.0,30.06,NE,37,0.0,1.0,97,0.00,,,0.01,,2013-05-02 12:52:00,
2013-05-02 06:01:00,49.0,48.0,30.07,NE,37,3.0,5.0,97,0.00,,,0.01,,2013-05-02 13:01:00,
2013-05-02 06:21:00,49.0,48.0,30.07,ENE,59,0.0,0.0,97,0.00,,,0.01,,2013-05-02 13:21:00,
2013-05-02 06:31:00,48.0,47.0,30.07,ENE,59,0.0,0.0,97,0.00,,,0.01,,2013-05-02 13:31:00,
2013-05-02 06:52:00,49.0,48.0,30.08,ENE,59,0.0,3.0,97,0.00,,,0.01,,2013-05-02 13:52:00,
2013-05-02 07:02:00,49.0,48.0,30.08,ENE,59,0.0,1.0,97,0.00,,,0.01,,2013-05-02 14:02:00,
2013-05-02 07:21:00,52.0,50.0,30.09,ENE,59,0.0,4.0,94,0.00,,,0.01,,2013-05-02 14:21:00,
2013-05-02 07:31:00,54.0,51.0,30.09,ENE,59,0.0,1.0,90,0.00,,,0.01,,2013-05-02 14:31:00,
2013-05-02 07:52:00,57.0,52.0,30.09,ENE,59,0.0,0.0,82,0.00,,,0.01,,2013-05-02 14:52:00,
2013-05-02 08:02:00,59.0,52.0,30.09,ENE,59,0.0,1.0,78,0.00,,,0.01,,2013-05-02 15:02:00,
2013-05-02 08:21:00,62.0,49.0,30.09,South,185,0.0,5.0,63,0.00,,,0.01,,2013-05-02 15:21:00,
2013-05-02 08:32:00,64.0,52.0,30.09,South,184,0.0,0.0,64,0.00,,,0.01,,2013-05-02 15:32:00,
2013-05-02 09:02:00,70.0,43.0,30.10,South,185,0.0,1.0,38,0.00,,,0.01,,2013-05-02 16:02:00,
2013-05-02 09:32:00,77.0,46.0,30.10,South,185,0.0,0.0,33,0.00,,,0.01,,2013-05-02 16:32:00,
2013-05-02 10:02:00,80.0,31.0,30.10,SSW,200,0.0,3.0,17,0.00,,,0.01,,2013-05-02 17:02:00,
2013-05-02 10:22:00,82.0,31.0,30.11,SW,234,1.0,4.0,16,0.00,,,0.01,,2013-05-02 17:22:00,
2013-05-02 10:31:00,83.0,35.0,30.11,SSW,212,3.0,6.0,18,0.00,,,0.01,,2013-05-02 17:31:00,
2013-05-02 10:42:00,83.0,35.0,30.11,SSW,212,3.0,6.0,18,0.00,,,0.01,,2013-05-02 17:42:00,
2013-05-02 10:52:00,84.0,34.0,30.10,WSW,246,0.0,5.0,17,0.00,,,0.01,,2013-05-02 17:52:00,
2013-05-02 11:01:00,85.0,35.0,30.11,SW,231,1.0,10.0,17,0.00,,,0.01,,2013-05-02 18:01:00,
2013-05-02 11:11:00,85.0,35.0,30.11,SW,231,1.0,10.0,17,0.00,,,0.01,,2013-05-02 18:11:00,
2013-05-02 11:21:00,86.0,27.0,30.11,West,268,0.0,3.0,12,0.00,,,0.01,,2013-05-02 18:21:00,
2013-05-02 11:31:00,88.0,31.0,30.10,WSW,252,2.0,7.0,13,0.00,,,0.01,,2013-05-02 18:31:00,
2013-05-02 11:41:00,88.0,31.0,30.10,WSW,252,2.0,7.0,13,0.00,,,0.01,,2013-05-02 18:41:00,
2013-05-02 11:52:00,89.0,23.0,30.10,NW,313,0.0,7.0,9,0.00,,,0.01,,2013-05-02 18:52:00,
2013-05-02 12:01:00,90.0,21.0,30.09,WNW,299,0.0,3.0,8,0.00,,,0.01,,2013-05-02 19:01:00,
2013-05-02 12:11:00,90.0,21.0,30.09,WNW,299,0.0,3.0,8,0.00,,,0.01,,2013-05-02 19:11:00,
2013-05-02 12:21:00,90.0,21.0,30.09,East,79,2.0,5.0,8,0.00,,,0.01,,2013-05-02 19:21:00,
2013-05-02 12:31:00,90.0,18.0,30.08,ENE,58,0.0,4.0,7,0.00,,,0.01,,2013-05-02 19:31:00,
2013-05-02 12:41:00,90.0,18.0,30.08,ENE,58,0.0,4.0,7,0.00,,,0.01,,2013-05-02 19:41:00,
2013-05-02 12:52:00,92.0,16.0,30.07,NNE,17,1.0,7.0,6,0.00,,,0.01,,2013-05-02 19:52:00,
2013-05-02 13:01:00,93.0,26.0,30.07,SW,221,5.0,11.0,9,0.00,,,0.01,,2013-05-02 20:01:00,
2013-05-02 13:11:00,93.0,26.0,30.07,SW,221,5.0,11.0,9,0.00,,,0.01,,2013-05-02 20:11:00,
2013-05-02 13:21:00,93.0,26.0,30.06,SSW,198,3.0,10.0,9,0.00,,,0.01,,2013-05-02 20:21:00,
2013-05-02 13:32:00,93.0,26.0,30.06,South,188,2.0,13.0,9,0.00,,,0.01,,2013-05-02 20:32:00,
2013-05-02 13:41:00,93.0,26.0,30.06,South,188,2.0,13.0,9,0.00,,,0.01,,2013-05-02 20:41:00,
2013-05-02 13:52:00,93.0,28.0,30.06,WSW,248,2.0,12.0,10,0.00,,,0.01,,2013-05-02 20:52:00,
2013-05-02 14:01:00,95.0,24.0,30.06,SW,219,5.0,13.0,8,0.00,,,0.01,,2013-05-02 21:01:00,
2013-05-02 14:11:00,95.0,24.0,30.06,SW,219,5.0,13.0,8,0.00,,,0.01,,2013-05-02 21:11:00,
2013-05-02 14:21:00,94.0,27.0,30.06,SE,127,1.0,10.0,9,0.00,,,0.01,,2013-05-02 21:21:00,
2013-05-02 14:33:00,93.0,28.0,30.06,South,171,5.0,10.0,10,0.00,,,0.01,,2013-05-02 21:33:00,
2013-05-02 14:42:00,93.0,28.0,30.06,South,171,5.0,10.0,10,0.00,,,0.01,,2013-05-02 21:42:00,
2013-05-02 14:53:00,92.0,32.0,30.06,South,178,2.0,14.0,12,0.00,,,0.01,,2013-05-02 21:53:00,
2013-05-02 15:02:00,91.0,31.0,30.06,WSW,252,1.0,7.0,12,0.00,,,0.01,,2013-05-02 22:02:00,
2013-05-02 15:12:00,91.0,31.0,30.06,WSW,252,1.0,7.0,12,0.00,,,0.01,,2013-05-02 22:12:00,
2013-05-02 15:22:00,92.0,32.0,30.05,SW,225,3.0,10.0,12,0.00,,,0.01,,2013-05-02 22:22:00,
2013-05-02 15:32:00,91.0,27.0,30.05,WSW,252,3.0,9.0,10,0.00,,,0.01,,2013-05-02 22:32:00,
2013-05-02 15:42:00,91.0,27.0,30.05,WSW,252,3.0,9.0,10,0.00,,,0.01,,2013-05-02 22:42:00,
2013-05-02 15:52:00,92.0,28.0,30.04,WSW,246,8.0,13.0,10,0.00,,,0.01,,2013-05-02 22:52:00,
2013-05-02 16:02:00,91.0,27.0,30.03,SW,218,3.0,12.0,10,0.00,,,0.01,,2013-05-02 23:02:00,
2013-05-02 16:11:00,91.0,27.0,30.03,SW,218,3.0,12.0,10,0.00,,,0.01,,2013-05-02 23:11:00,
2013-05-02 16:22:00,91.0,29.0,30.03,SW,233,3.0,13.0,11,0.00,,,0.01,,2013-05-02 23:22:00,
2013-05-02 16:31:00,92.0,28.0,30.03,SW,236,3.0,9.0,10,0.00,,,0.01,,2013-05-02 23:31:00,
2013-05-02 16:42:00,92.0,28.0,30.03,SW,236,3.0,9.0,10,0.00,,,0.01,,2013-05-02 23:42:00,
2013-05-02 16:52:00,92.0,28.0,30.03,SW,236,3.0,9.0,10,0.00,,,0.01,,2013-05-02 23:52:00,
2013-05-02 17:01:00,90.0,31.0,30.03,SW,234,2.0,5.0,12,-99.99,,,-99.99,,2013-05-03 00:01:00,
2013-05-02 17:11:00,90.0,31.0,30.03,SW,234,2.0,5.0,12,-99.99,,,-99.99,,2013-05-03 00:11:00,
2013-05-02 17:21:00,89.0,30.0,30.03,WSW,248,1.0,5.0,12,-99.99,,,-99.99,,2013-05-03 00:21:00,
2013-05-02 17:31:00,88.0,35.0,30.03,SW,218,4.0,7.0,15,-99.99,,,-99.99,,2013-05-03 00:31:00,
2013-05-02 17:41:00,88.0,35.0,30.03,SW,218,4.0,7.0,15,-99.99,,,-99.99,,2013-05-03 00:41:00,
2013-05-02 17:52:00,87.0,35.0,30.03,WSW,240,2.0,9.0,16,-99.99,,,-99.99,,2013-05-03 00:52:00,
2013-05-02 18:01:00,87.0,34.0,30.02,SW,222,0.0,7.0,15,0.00,,,-99.99,,2013-05-03 01:01:00,
2013-05-02 18:11:00,87.0,34.0,30.02,SW,222,0.0,7.0,15,0.00,,,-99.99,,2013-05-03 01:11:00,
2013-05-02 18:21:00,86.0,35.0,30.03,WSW,249,2.0,7.0,16,0.00,,,-99.99,,2013-05-03 01:21:00,
2013-05-02 18:31:00,86.0,35.0,30.02,SW,232,0.0,6.0,16,0.00,,,-99.99,,2013-05-03 01:31:00,
2013-05-02 18:41:00,86.0,35.0,30.02,SW,232,0.0,6.0,16,0.00,,,-99.99,,2013-05-03 01:41:00,
2013-05-02 18:52:00,85.0,35.0,30.02,SSW,202,1.0,5.0,17,0.00,,,-99.99,,2013-05-03 01:52:00,
2013-05-02 19:01:00,84.0,37.0,30.02,SSW,207,1.0,5.0,19,0.00,,,-99.99,,2013-05-03 02:01:00,
2013-05-02 19:11:00,84.0,37.0,30.02,SSW,207,1.0,5.0,19,0.00,,,-99.99,,2013-05-03 02:11:00,
2013-05-02 19:21:00,81.0,37.0,30.02,SSW,209,0.0,4.0,21,0.00,,,-99.99,,2013-05-03 02:21:00,
2013-05-02 19:31:00,80.0,38.0,30.02,SSW,211,0.0,2.0,22,0.00,,,-99.99,,2013-05-03 02:31:00,
2013-05-02 19:41:00,80.0,38.0,30.02,SSW,211,0.0,2.0,22,0.00,,,-99.99,,2013-05-03 02:41:00,
2013-05-02 19:52:00,77.0,38.0,30.02,SSW,208,2.0,4.0,25,0.00,,,-99.99,,2013-05-03 02:52:00,
2013-05-02 20:01:00,76.0,39.0,30.02,SW,228,2.0,5.0,26,0.00,,,-99.99,,2013-05-03 03:01:00,
2013-05-02 20:11:00,76.0,39.0,30.02,SW,228,2.0,5.0,26,0.00,,,-99.99,,2013-05-03 03:11:00,
2013-05-02 20:21:00,75.0,39.0,30.03,SW,228,0.0,0.0,27,0.00,,,-99.99,,2013-05-03 03:21:00,
2013-05-02 20:32:00,74.0,39.0,30.03,SW,227,0.0,0.0,28,0.00,,,-99.99,,2013-05-03 03:32:00,
2013-05-02 20:42:00,74.0,39.0,30.03,SW,227,0.0,0.0,28,0.00,,,-99.99,,2013-05-03 03:42:00,
2013-05-02 20:53:00,73.0,38.0,30.03,SW,227,0.0,1.0,28,0.00,,,-99.99,,2013-05-03 03:53:00,
2013-05-02 21:02:00,73.0,35.0,30.03,SW,227,2.0,4.0,25,0.00,,,-99.99,,2013-05-03 04:02:00,
2013-05-02 21:12:00,73.0,35.0,30.03,SW,227,2.0,4.0,25,0.00,,,-99.99,,2013-05-03 04:12:00,
2013-05-02 21:22:00,73.0,34.0,30.04,NNE,30,2.0,5.0,24,0.00,,,-99.99,,2013-05-03 04:22:00,
2013-05-02 21:32:00,73.0,34.0,30.04,NNE,22,2.0,5.0,24,0.00,,,-99.99,,2013-05-03 04:32:00,
2013-05-02 21:53:00,73.0,33.0,30.04,NNE,18,0.0,1.0,23,0.00,,,-99.99,,2013-05-03 04:53:00,
2013-05-02 22:02:00,72.0,35.0,30.05,NNE,18,0.0,1.0,26,0.00,,,-99.99,,2013-05-03 05:02:00,
2013-05-02 22:11:00,72.0,35.0,30.05,NNE,18,0.0,1.0,26,0.00,,,-99.99,,2013-05-03 05:11:00,
2013-05-02 22:21:00,69.0,33.0,30.05,NE,36,2.0,6.0,26,0.00,,,-99.99,,2013-05-03 05:21:00,
2013-05-02 22:32:00,69.0,33.0,30.05,NE,44,2.0,4.0,26,0.00,,,-99.99,,2013-05-03 05:32:00,
2013-05-02 22:42:00,69.0,33.0,30.05,NE,44,2.0,4.0,26,0.00,,,-99.99,,2013-05-03 05:42:00,
2013-05-02 22:52:00,69.0,32.0,30.05,ENE,57,1.0,5.0,25,0.00,,,-99.99,,2013-05-03 05:52:00,
2013-05-02 23:01:00,68.0,30.0,30.04,NNE,25,2.0,3.0,24,0.00,,,-99.99,,2013-05-03 06:01:00,
2013-05-02 23:11:00,68.0,30.0,30.04,NNE,25,2.0,3.0,24,0.00,,,-99.99,,2013-05-03 06:11:00,
2013-05-02 23:21:00,69.0,27.0,30.04,NNE,32,3.0,5.0,21,0.00,,,-99.99,,2013-05-03 06:21:00,
2013-05-02 23:31:00,70.0,28.0,30.04,North,350,4.0,9.0,21,0.00,,,-99.99,,2013-05-03 06:31:00,
2013-05-02 23:52:00,71.0,28.0,30.04,NNW,342,4.0,10.0,20,0.00,,,-99.99,,2013-05-03 06:52:00,